Time,TemperatureF,DewpointF,PressureIn,WindDirection,WindDirectionDegrees,WindSpeedMPH,WindSpeedGustMPH,Humidity,HourlyPrecipIn,Conditions,Clouds,dailyrainin,SoftwareType,DateUTC
2013-03-13 00:00:00,39.2,27.6,29.54,WNW,293,7.4,7.4,63,0.00,,,0.00,WUHU216HW,2013-03-13 04:00:00,
2013-03-13 00:05:00,39.2,27.6,29.54,WNW,293,7.4,7.4,63,0.00,,,0.00,WUHU216HW,2013-03-13 04:05:00,
2013-03-13 00:30:00,39.1,27.5,29.54,NW,315,6.3,6.3,63,0.00,,,0.00,WUHU216HW,2013-03-13 04:30:00,
2013-03-13 00:35:00,39.1,27.5,29.54,NW,315,6.3,6.3,63,0.00,,,0.00,WUHU216HW,2013-03-13 04:35:00,
2013-03-13 01:00:00,39.1,27.5,29.54,WNW,293,5.6,5.6,63,0.00,,,0.00,WUHU216HW,2013-03-13 05:00:00,
2013-03-13 01:05:00,39.1,27.5,29.54,WNW,293,5.6,5.6,63,0.00,,,0.00,WUHU216HW,2013-03-13 05:05:00,
2013-03-13 01:30:00,39.1,27.5,29.54,WNW,293,2.9,2.9,63,0.00,,,0.00,WUHU216HW,2013-03-13 05:30:00,
2013-03-13 01:35:00,39.1,27.5,29.54,WNW,293,2.9,2.9,63,0.00,,,0.00,WUHU216HW,2013-03-13 05:35:00,
2013-03-13 02:00:00,38.7,27.1,29.53,NW,315,0.9,0.9,63,0.00,,,0.00,WUHU216HW,2013-03-13 06:00:00,
2013-03-13 02:05:00,38.7,27.1,29.53,NW,315,0.9,0.9,63,0.00,,,0.00,WUHU216HW,2013-03-13 06:05:00,
2013-03-13 02:30:00,38.9,27.3,29.53,NW,315,1.3,1.3,63,0.00,,,0.00,WUHU216HW,2013-03-13 06:30:00,
2013-03-13 02:35:00,38.9,27.3,29.53,NW,315,1.3,1.3,63,0.00,,,0.00,WUHU216HW,2013-03-13 06:35:00,
2013-03-13 03:00:00,37.8,26.3,29.52,WNW,293,0.9,0.9,63,0.00,,,0.00,WUHU216HW,2013-03-13 07:00:00,
2013-03-13 03:05:00,37.8,26.3,29.52,WNW,293,0.9,0.9,63,0.00,,,0.00,WUHU216HW,2013-03-13 07:05:00,
2013-03-13 03:30:00,37.3,25.5,29.51,WNW,293,4.5,4.5,62,0.00,,,0.00,WUHU216HW,2013-03-13 07:30:00,
2013-03-13 03:35:00,37.3,25.5,29.51,WNW,293,4.5,4.5,62,0.00,,,0.00,WUHU216HW,2013-03-13 07:35:00,
2013-03-13 04:00:00,36.5,24.4,29.50,WNW,293,0.7,0.7,61,0.00,,,0.00,WUHU216HW,2013-03-13 08:00:00,
2013-03-13 04:05:00,36.5,24.4,29.50,WNW,293,0.7,0.7,61,0.00,,,0.00,WUHU216HW,2013-03-13 08:05:00,
2013-03-13 04:30:00,35.3,23.6,29.49,North,0,0.0,0.0,62,0.00,,,0.00,WUHU216HW,2013-03-13 08:30:00,
2013-03-13 04:35:00,35.3,23.6,29.49,North,0,0.0,0.0,62,0.00,,,0.00,WUHU216HW,2013-03-13 08:35:00,
2013-03-13 05:00:00,33.5,22.5,29.50,WNW,293,0.0,0.0,64,0.00,,,0.00,WUHU216HW,2013-03-13 09:00:00,
2013-03-13 05:05:00,33.5,22.5,29.50,WNW,293,0.0,0.0,64,0.00,,,0.00,WUHU216HW,2013-03-13 09:05:00,
2013-03-13 05:30:00,32.0,22.3,29.50,WNW,293,0.4,0.4,67,0.00,,,0.00,WUHU216HW,2013-03-13 09:30:00,
2013-03-13 05:35:00,32.0,22.3,29.50,WNW,293,0.4,0.4,67,0.00,,,0.00,WUHU216HW,2013-03-13 09:35:00,
2013-03-13 06:00:00,32.0,22.3,29.51,WSW,248,0.0,0.0,67,0.00,,,0.00,WUHU216HW,2013-03-13 10:00:00,
2013-03-13 06:05:00,32.0,22.3,29.51,WSW,248,0.0,0.0,67,0.00,,,0.00,WUHU216HW,2013-03-13 10:05:00,
2013-03-13 06:30:00,30.6,22.0,29.51,SSW,203,0.0,0.0,70,0.00,,,0.00,WUHU216HW,2013-03-13 10:30:00,
2013-03-13 06:35:00,30.6,22.0,29.51,SSW,203,0.0,0.0,70,0.00,,,0.00,WUHU216HW,2013-03-13 10:35:00,
2013-03-13 07:00:00,30.2,22.0,29.51,WSW,248,0.0,0.0,71,0.00,,,0.00,WUHU216HW,2013-03-13 11:00:00,
2013-03-13 07:05:00,30.2,22.0,29.51,WSW,248,0.0,0.0,71,0.00,,,0.00,WUHU216HW,2013-03-13 11:05:00,
2013-03-13 07:30:00,30.6,22.6,29.51,SSE,158,1.1,1.1,72,0.00,,,0.00,WUHU216HW,2013-03-13 11:30:00,
2013-03-13 07:35:00,30.6,22.6,29.51,SSE,158,1.1,1.1,72,0.00,,,0.00,WUHU216HW,2013-03-13 11:35:00,
2013-03-13 08:00:00,30.2,22.6,29.51,SSW,203,0.0,0.0,73,0.00,,,0.00,WUHU216HW,2013-03-13 12:00:00,
2013-03-13 08:05:00,30.2,22.6,29.51,SSW,203,0.0,0.0,73,0.00,,,0.00,WUHU216HW,2013-03-13 12:05:00,
2013-03-13 08:30:00,31.1,23.8,29.52,SSW,203,0.0,0.0,74,0.00,,,0.00,WUHU216HW,2013-03-13 12:30:00,
2013-03-13 08:35:00,31.1,23.8,29.52,SSW,203,0.0,0.0,74,0.00,,,0.00,WUHU216HW,2013-03-13 12:35:00,
2013-03-13 09:00:00,35.3,27.5,29.52,SSE,158,1.1,1.1,73,0.00,,,0.00,WUHU216HW,2013-03-13 13:00:00,
2013-03-13 09:05:00,35.3,27.5,29.52,SSE,158,1.1,1.1,73,0.00,,,0.00,WUHU216HW,2013-03-13 13:05:00,
2013-03-13 09:30:00,40.0,30.6,29.51,SSW,203,0.7,0.7,69,0.00,,,0.00,WUHU216HW,2013-03-13 13:30:00,
2013-03-13 09:35:00,40.0,30.6,29.51,SSW,203,0.7,0.7,69,0.00,,,0.00,WUHU216HW,2013-03-13 13:35:00,
2013-03-13 10:00:00,42.8,29.0,29.50,West,270,1.8,1.8,58,0.00,,,0.00,WUHU216HW,2013-03-13 14:00:00,
2013-03-13 10:05:00,42.8,29.0,29.50,West,270,1.8,1.8,58,0.00,,,0.00,WUHU216HW,2013-03-13 14:05:00,
2013-03-13 10:30:00,42.8,27.3,29.51,West,270,4.3,4.3,54,0.00,,,0.00,WUHU216HW,2013-03-13 14:30:00,
2013-03-13 10:35:00,42.8,27.3,29.51,West,270,4.3,4.3,54,0.00,,,0.00,WUHU216HW,2013-03-13 14:35:00,
2013-03-13 11:00:00,43.2,26.7,29.51,WNW,293,4.3,4.3,52,0.00,,,0.00,WUHU216HW,2013-03-13 15:00:00,
2013-03-13 11:05:00,43.2,26.7,29.51,WNW,293,4.3,4.3,52,0.00,,,0.00,WUHU216HW,2013-03-13 15:05:00,
2013-03-13 11:30:00,44.6,26.6,29.51,NW,315,6.9,6.9,49,0.00,,,0.00,WUHU216HW,2013-03-13 15:30:00,
2013-03-13 11:35:00,44.6,26.6,29.51,NW,315,6.9,6.9,49,0.00,,,0.00,WUHU216HW,2013-03-13 15:35:00,
2013-03-13 12:00:00,45.7,23.3,29.51,SSW,203,9.6,9.6,41,0.00,,,0.00,WUHU216HW,2013-03-13 16:00:00,
2013-03-13 12:05:00,45.7,23.3,29.51,SSW,203,9.6,9.6,41,0.00,,,0.00,WUHU216HW,2013-03-13 16:05:00,
2013-03-13 12:30:00,49.3,25.3,29.50,WNW,293,4.9,4.9,39,0.00,,,0.00,WUHU216HW,2013-03-13 16:30:00,
2013-03-13 12:35:00,49.3,25.3,29.50,WNW,293,4.9,4.9,39,0.00,,,0.00,WUHU216HW,2013-03-13 16:35:00,
2013-03-13 13:00:00,51.1,25.6,29.50,NW,315,8.1,8.1,37,0.00,,,0.00,WUHU216HW,2013-03-13 17:00:00,
2013-03-13 13:05:00,51.1,25.6,29.50,NW,315,8.1,8.1,37,0.00,,,0.00,WUHU216HW,2013-03-13 17:05:00,
2013-03-13 13:30:00,50.0,24.0,29.50,West,270,5.4,5.4,36,0.00,,,0.00,WUHU216HW,2013-03-13 17:30:00,
2013-03-13 13:35:00,50.0,24.0,29.50,West,270,5.4,5.4,36,0.00,,,0.00,WUHU216HW,2013-03-13 17:35:00,
2013-03-13 14:00:00,50.8,25.2,29.49,NNW,338,4.3,4.3,37,0.00,,,0.00,WUHU216HW,2013-03-13 18:00:00,
2013-03-13 14:05:00,50.8,25.2,29.49,NNW,338,4.3,4.3,37,0.00,,,0.00,WUHU216HW,2013-03-13 18:05:00,
2013-03-13 14:30:00,50.4,24.9,29.49,NNW,338,11.0,11.0,37,0.00,,,0.00,WUHU216HW,2013-03-13 18:30:00,
2013-03-13 14:35:00,50.4,24.9,29.49,NNW,338,11.0,11.0,37,0.00,,,0.00,WUHU216HW,2013-03-13 18:35:00,
2013-03-13 15:00:00,51.7,27.5,29.48,NW,315,5.8,5.8,39,0.00,,,0.00,WUHU216HW,2013-03-13 19:00:00,
2013-03-13 15:05:00,51.7,27.5,29.48,NW,315,5.8,5.8,39,0.00,,,0.00,WUHU216HW,2013-03-13 19:05:00,
2013-03-13 15:30:00,48.2,25.0,29.49,WNW,293,12.1,12.1,40,0.00,,,0.00,WUHU216HW,2013-03-13 19:30:00,
2013-03-13 15:35:00,48.2,25.0,29.49,WNW,293,12.1,12.1,40,0.00,,,0.00,WUHU216HW,2013-03-13 19:35:00,
2013-03-13 16:00:00,43.9,27.5,29.50,West,270,1.8,1.8,52,0.00,,,0.00,WUHU216HW,2013-03-13 20:00:00,
2013-03-13 16:05:00,43.9,27.5,29.50,West,270,1.8,1.8,52,0.00,,,0.00,WUHU216HW,2013-03-13 20:05:00,
2013-03-13 16:30:00,52.2,29.2,29.50,WNW,293,9.8,9.8,41,0.00,,,0.00,WUHU216HW,2013-03-13 20:30:00,
2013-03-13 16:35:00,52.2,29.2,29.50,WNW,293,9.8,9.8,41,0.00,,,0.00,WUHU216HW,2013-03-13 20:35:00,
2013-03-13 17:00:00,45.5,26.9,29.52,WNW,293,12.3,12.3,48,0.00,,,0.00,WUHU216HW,2013-03-13 21:00:00,
2013-03-13 17:05:00,45.5,26.9,29.52,WNW,293,12.3,12.3,48,0.00,,,0.00,WUHU216HW,2013-03-13 21:05:00,
2013-03-13 17:30:00,41.0,27.8,29.53,WNW,293,8.5,8.5,59,0.00,,,0.00,WUHU216HW,2013-03-13 21:30:00,
2013-03-13 17:35:00,41.0,27.8,29.53,WNW,293,8.5,8.5,59,0.00,,,0.00,WUHU216HW,2013-03-13 21:35:00,
2013-03-13 18:00:00,44.5,27.9,29.53,WNW,293,10.3,10.3,52,0.00,,,0.00,WUHU216HW,2013-03-13 22:00:00,
2013-03-13 18:05:00,44.5,27.9,29.53,WNW,293,10.3,10.3,52,0.00,,,0.00,WUHU216HW,2013-03-13 22:05:00,
2013-03-13 18:30:00,40.7,24.8,29.54,West,270,9.2,9.2,53,0.00,,,0.00,WUHU216HW,2013-03-13 22:30:00,
2013-03-13 18:35:00,40.7,24.8,29.54,West,270,9.2,9.2,53,0.00,,,0.00,WUHU216HW,2013-03-13 22:35:00,
2013-03-13 19:00:00,38.9,20.8,29.55,NW,315,10.7,10.7,48,0.00,,,0.00,WUHU216HW,2013-03-13 23:00:00,
2013-03-13 19:05:00,38.9,20.8,29.55,NW,315,10.7,10.7,48,0.00,,,0.00,WUHU216HW,2013-03-13 23:05:00,
2013-03-13 19:30:00,37.6,20.7,29.58,WNW,293,9.8,9.8,50,0.00,,,0.00,WUHU216HW,2013-03-13 23:30:00,
2013-03-13 19:35:00,37.6,20.7,29.58,WNW,293,9.8,9.8,50,0.00,,,0.00,WUHU216HW,2013-03-13 23:35:00,
2013-03-13 20:00:00,36.2,20.3,29.59,NW,315,10.7,10.7,52,0.00,,,0.00,WUHU216HW,2013-03-14 00:00:00,
2013-03-13 20:05:00,36.2,20.3,29.59,NW,315,10.7,10.7,52,0.00,,,0.00,WUHU216HW,2013-03-14 00:05:00,
2013-03-13 20:30:00,34.9,19.4,29.60,NW,315,11.2,11.2,53,0.00,,,0.00,WUHU216HW,2013-03-14 00:30:00,
2013-03-13 20:35:00,34.9,19.4,29.60,NW,315,11.2,11.2,53,0.00,,,0.00,WUHU216HW,2013-03-14 00:35:00,
2013-03-13 21:00:00,34.4,18.6,29.60,WNW,293,6.3,6.3,52,0.00,,,0.00,WUHU216HW,2013-03-14 01:00:00,
2013-03-13 21:05:00,34.4,18.6,29.60,WNW,293,6.3,6.3,52,0.00,,,0.00,WUHU216HW,2013-03-14 01:05:00,
2013-03-13 21:30:00,34.0,19.0,29.61,WNW,293,6.3,6.3,54,0.00,,,0.00,WUHU216HW,2013-03-14 01:30:00,
2013-03-13 21:35:00,34.0,19.0,29.61,WNW,293,6.3,6.3,54,0.00,,,0.00,WUHU216HW,2013-03-14 01:35:00,
2013-03-13 22:00:00,33.3,19.2,29.63,WNW,293,6.9,6.9,56,0.00,,,0.00,WUHU216HW,2013-03-14 02:00:00,
2013-03-13 22:05:00,33.3,19.2,29.63,WNW,293,6.9,6.9,56,0.00,,,0.00,WUHU216HW,2013-03-14 02:05:00,
2013-03-13 22:30:00,33.1,19.9,29.63,WNW,293,5.4,5.4,58,0.00,,,0.00,WUHU216HW,2013-03-14 02:30:00,
2013-03-13 22:35:00,33.1,19.9,29.63,WNW,293,5.4,5.4,58,0.00,,,0.00,WUHU216HW,2013-03-14 02:35:00,
2013-03-13 23:00:00,32.4,18.8,29.63,WNW,293,0.7,0.7,57,0.00,,,0.00,WUHU216HW,2013-03-14 03:00:00,
2013-03-13 23:05:00,32.4,18.8,29.63,WNW,293,0.7,0.7,57,0.00,,,0.00,WUHU216HW,2013-03-14 03:05:00,
2013-03-13 23:30:00,31.5,19.6,29.64,WNW,293,8.5,8.5,61,0.00,,,0.00,WUHU216HW,2013-03-14 03:30:00,
2013-03-13 23:35:00,31.5,19.6,29.64,WNW,293,8.5,8.5,61,0.00,,,0.00,WUHU216HW,2013-03-14 03:35:00,